Time;durP1;ratioP1;P1;durP2;ratioP2;P2;SDS_P1;SDS_P2;PMS_P1;PMS_P2;Temp;Humidity;BMP_temperature;BMP_pressure;BME280_temperature;BME280_humidity;BME280_pressure;Samples;Min_cycle;Max_cycle;Signal;HPM_P1;HPM_P2
2023/07/31 00:01:35;;;;;;;2.40;1.30;;;22.50;99.90;;;;;;5030998;28;20837;-79
2023/07/31 00:04:01;;;;;;;1.83;1.40;;;22.50;99.90;;;;;;5029234;28;20460;-79
2023/07/31 00:06:28;;;;;;;4.07;1.20;;;22.50;99.90;;;;;;5036817;28;21267;-80
2023/07/31 00:08:56;;;;;;;2.17;1.40;;;22.50;99.90;;;;;;5037902;28;20474;-79
2023/07/31 00:11:23;;;;;;;2.80;1.50;;;22.40;99.90;;;;;;5038186;28;20497;-79
2023/07/31 00:13:50;;;;;;;3.63;2.17;;;22.40;99.90;;;;;;5031814;28;20458;-79
2023/07/31 00:16:16;;;;;;;4.03;1.27;;;22.40;99.90;;;;;;5034327;28;20453;-79
2023/07/31 00:18:43;;;;;;;1.40;1.30;;;22.40;99.90;;;;;;5032814;28;21231;-79
2023/07/31 00:21:10;;;;;;;1.73;1.30;;;22.40;99.90;;;;;;5034901;28;20453;-79
2023/07/31 00:23:37;;;;;;;4.80;1.63;;;22.40;99.90;;;;;;5031649;28;20457;-79
2023/07/31 00:26:05;;;;;;;2.43;1.70;;;22.50;99.90;;;;;;5028648;28;20469;-80
2023/07/31 00:28:31;;;;;;;1.57;1.47;;;22.40;99.90;;;;;;5029036;28;20880;-79
2023/07/31 00:30:58;;;;;;;4.73;1.70;;;22.40;99.90;;;;;;5033290;28;20493;-79
2023/07/31 00:33:25;;;;;;;2.37;1.83;;;22.40;99.90;;;;;;5028537;28;20983;-79
2023/07/31 00:35:51;;;;;;;5.00;1.67;;;22.40;99.90;;;;;;5028018;28;20461;-79
2023/07/31 00:38:18;;;;;;;2.50;1.77;;;22.40;99.90;;;;;;5028681;28;20466;-79
2023/07/31 00:40:45;;;;;;;1.93;1.40;;;22.40;99.90;;;;;;5034129;28;20527;-79
2023/07/31 00:43:13;;;;;;;3.23;1.43;;;22.40;99.90;;;;;;5032551;28;20499;-79
2023/07/31 00:45:40;;;;;;;1.80;1.40;;;22.40;99.90;;;;;;5029632;28;20989;-79
2023/07/31 00:48:07;;;;;;;1.60;1.27;;;22.40;99.90;;;;;;5033417;28;20464;-79
2023/07/31 00:50:35;;;;;;;2.40;1.50;;;22.40;99.90;;;;;;5031841;28;20473;-79
2023/07/31 00:53:02;;;;;;;1.93;1.73;;;22.40;99.90;;;;;;5030106;28;20469;-79
2023/07/31 00:55:29;;;;;;;1.40;1.23;;;22.40;99.90;;;;;;5026434;28;20517;-79
2023/07/31 00:57:56;;;;;;;3.03;1.93;;;22.40;99.90;;;;;;5027417;28;20914;-79
2023/07/31 01:00:24;;;;;;;2.13;1.50;;;22.40;99.90;;;;;;5027747;28;20458;-79
2023/07/31 01:02:52;;;;;;;1.70;1.60;;;22.40;99.90;;;;;;5025418;28;20453;-79
2023/07/31 01:05:26;;;;;;;2.13;1.60;;;22.40;99.90;;;;;;5028618;28;20995;-79
2023/07/31 01:08:00;;;;;;;1.70;1.53;;;22.40;99.90;;;;;;5026519;28;20994;-79
2023/07/31 01:10:31;;;;;;;2.00;1.63;;;22.40;99.90;;;;;;5029944;28;20492;-79
2023/07/31 01:12:59;;;;;;;2.23;1.47;;;22.40;99.90;;;;;;5026212;28;21125;-79
2023/07/31 01:15:27;;;;;;;2.33;1.40;;;22.40;99.90;;;;;;5030364;28;20935;-79
2023/07/31 01:17:53;;;;;;;1.87;1.30;;;22.40;99.90;;;;;;5028518;28;20471;-79
2023/07/31 01:20:27;;;;;;;2.13;1.93;;;22.40;99.90;;;;;;5036518;28;20480;-79
2023/07/31 01:23:27;;;;;;;3.20;1.40;;;22.40;99.90;;;;;;5027590;28;20836;-79
2023/07/31 01:26:04;;;;;;;3.07;1.43;;;22.40;99.90;;;;;;5026410;28;20463;-81
2023/07/31 01:28:40;;;;;;;1.77;1.40;;;22.40;99.90;;;;;;5029236;28;21092;-80
2023/07/31 01:31:10;;;;;;;1.70;1.10;;;22.40;99.90;;;;;;5028832;28;20492;-80
2023/07/31 01:33:38;;;;;;;3.20;1.63;;;22.40;99.90;;;;;;5035574;28;20462;-80
2023/07/31 01:36:05;;;;;;;4.60;1.63;;;22.30;99.90;;;;;;5032196;28;20487;-80
2023/07/31 01:38:32;;;;;;;1.53;1.43;;;22.30;99.90;;;;;;5031847;28;20753;-81
2023/07/31 01:41:00;;;;;;;1.90;1.60;;;22.30;99.90;;;;;;5035805;28;21079;-81
2023/07/31 01:43:27;;;;;;;1.57;1.30;;;22.30;99.90;;;;;;5031683;28;20461;-81
2023/07/31 01:45:54;;;;;;;1.60;1.23;;;22.30;99.90;;;;;;5028455;28;20879;-81
2023/07/31 01:48:20;;;;;;;2.43;1.70;;;22.30;99.90;;;;;;5033464;28;20460;-81
2023/07/31 01:50:47;;;;;;;1.63;1.53;;;22.30;99.90;;;;;;5031981;28;20871;-81
2023/07/31 01:53:14;;;;;;;1.17;1.07;;;22.30;99.90;;;;;;5035776;28;20485;-81
2023/07/31 01:55:41;;;;;;;2.53;1.30;;;22.30;99.90;;;;;;5031480;28;20531;-81
2023/07/31 01:58:09;;;;;;;1.83;1.60;;;22.30;99.90;;;;;;5029450;28;20987;-80
2023/07/31 02:00:35;;;;;;;2.63;1.57;;;22.30;99.90;;;;;;5035042;28;20473;-80
2023/07/31 02:03:02;;;;;;;2.60;1.50;;;22.30;99.90;;;;;;5031105;28;20451;-80
2023/07/31 02:05:29;;;;;;;2.60;1.57;;;22.40;99.90;;;;;;5035350;28;20472;-80
2023/07/31 02:07:56;;;;;;;2.40;1.80;;;22.30;99.90;;;;;;5034733;28;20464;-81
2023/07/31 02:10:22;;;;;;;1.50;1.40;;;22.30;99.90;;;;;;5033868;28;20461;-81
2023/07/31 02:12:49;;;;;;;1.53;1.43;;;22.30;99.90;;;;;;5034664;28;20489;-80
2023/07/31 02:15:18;;;;;;;1.63;1.20;;;22.30;99.90;;;;;;5036477;28;20488;-80
2023/07/31 02:17:45;;;;;;;2.17;1.57;;;22.30;99.90;;;;;;5036489;28;20832;-80
2023/07/31 02:20:12;;;;;;;2.60;1.20;;;22.30;99.90;;;;;;5035958;28;20468;-80
2023/07/31 02:22:38;;;;;;;4.40;1.40;;;22.30;99.90;;;;;;5032615;28;20952;-81
2023/07/31 02:25:06;;;;;;;1.40;1.17;;;22.30;99.90;;;;;;5035360;28;21188;-80
2023/07/31 02:27:32;;;;;;;1.73;1.60;;;22.30;99.90;;;;;;4999771;28;1038785;-80
2023/07/31 02:30:00;;;;;;;2.13;1.50;;;22.30;99.90;;;;;;5034817;28;20207;-80
2023/07/31 02:32:28;;;;;;;1.73;1.50;;;22.30;99.90;;;;;;5035841;28;20624;-80
2023/07/31 02:34:54;;;;;;;1.83;1.40;;;22.30;99.90;;;;;;5035783;28;20836;-80
2023/07/31 02:37:21;;;;;;;1.50;1.40;;;22.30;99.90;;;;;;5028393;28;20465;-79
2023/07/31 02:39:48;;;;;;;1.70;1.60;;;22.30;99.90;;;;;;5033490;28;20988;-78
2023/07/31 02:42:15;;;;;;;1.60;1.50;;;22.30;99.90;;;;;;5035287;28;20892;-78
2023/07/31 02:44:42;;;;;;;1.47;1.30;;;22.30;99.90;;;;;;5027929;28;20468;-80
2023/07/31 02:47:09;;;;;;;2.10;1.43;;;22.30;99.90;;;;;;5028755;28;21044;-80
2023/07/31 02:49:37;;;;;;;1.50;1.30;;;22.30;99.90;;;;;;5031790;28;20462;-81
2023/07/31 02:52:04;;;;;;;1.30;1.13;;;22.30;99.90;;;;;;5031946;28;21086;-80
2023/07/31 02:54:31;;;;;;;2.40;1.40;;;22.30;99.90;;;;;;5036475;28;20496;-80
2023/07/31 02:56:58;;;;;;;2.53;1.33;;;22.30;99.90;;;;;;5032847;28;20466;-80
2023/07/31 02:59:25;;;;;;;2.43;1.30;;;22.30;99.90;;;;;;5035459;28;20464;-81
2023/07/31 03:01:51;;;;;;;3.00;1.47;;;22.30;99.90;;;;;;5038948;28;20454;-80
2023/07/31 03:04:18;;;;;;;1.33;1.20;;;22.30;99.90;;;;;;5035490;28;20458;-80
2023/07/31 03:06:46;;;;;;;1.43;1.23;;;22.30;99.90;;;;;;5033292;28;21084;-80
2023/07/31 03:09:13;;;;;;;1.57;1.37;;;22.20;99.90;;;;;;5034059;28;20468;-80
2023/07/31 03:11:39;;;;;;;1.60;1.10;;;22.30;99.90;;;;;;5034834;28;21640;-80
2023/07/31 03:14:06;;;;;;;1.60;1.50;;;22.30;99.90;;;;;;5036301;28;20461;-80
2023/07/31 03:16:33;;;;;;;1.50;1.10;;;22.30;99.90;;;;;;5034850;28;20456;-79
2023/07/31 03:19:00;;;;;;;1.50;1.33;;;22.20;99.90;;;;;;5034288;28;20462;-80
2023/07/31 03:21:26;;;;;;;1.83;1.40;;;22.20;99.90;;;;;;5041867;28;20462;-80
2023/07/31 03:23:54;;;;;;;1.70;1.20;;;22.30;99.90;;;;;;5034082;28;20832;-81
2023/07/31 03:26:21;;;;;;;1.90;1.43;;;22.30;99.90;;;;;;5036434;28;20487;-80
2023/07/31 03:28:49;;;;;;;1.67;1.30;;;22.30;99.90;;;;;;5035052;28;20469;-78
2023/07/31 03:31:16;;;;;;;1.83;1.20;;;22.20;99.90;;;;;;5031409;28;20458;-79
2023/07/31 03:33:42;;;;;;;2.63;1.43;;;22.30;99.90;;;;;;5030402;28;20560;-78
2023/07/31 03:36:09;;;;;;;1.50;1.23;;;22.20;99.90;;;;;;5037236;28;20977;-79
2023/07/31 03:38:36;;;;;;;1.43;1.33;;;22.20;99.90;;;;;;5035830;28;21013;-79
2023/07/31 03:41:06;;;;;;;1.50;1.23;;;22.20;99.90;;;;;;5036259;28;20460;-80
2023/07/31 03:43:33;;;;;;;1.40;1.20;;;22.20;99.90;;;;;;5042706;28;20577;-81
2023/07/31 03:46:00;;;;;;;1.30;1.20;;;22.20;99.90;;;;;;5037297;28;20973;-80
2023/07/31 03:48:27;;;;;;;1.50;1.33;;;22.20;99.90;;;;;;5036706;28;20457;-80
2023/07/31 03:50:53;;;;;;;1.60;1.20;;;22.20;99.90;;;;;;5030347;28;20905;-80
2023/07/31 03:53:20;;;;;;;2.00;1.50;;;22.20;99.90;;;;;;5033221;28;21141;-81
2023/07/31 03:55:47;;;;;;;2.80;1.50;;;22.20;99.90;;;;;;5031085;28;20465;-81
2023/07/31 03:58:15;;;;;;;3.53;1.70;;;22.20;99.90;;;;;;5034447;28;20925;-81
2023/07/31 04:00:42;;;;;;;1.70;1.40;;;22.20;99.90;;;;;;5032628;28;20503;-81
2023/07/31 04:03:08;;;;;;;1.50;1.03;;;22.20;99.90;;;;;;5027603;28;20956;-80
2023/07/31 04:05:40;;;;;;;1.40;1.30;;;22.20;99.90;;;;;;5036222;28;20461;-81
2023/07/31 04:08:07;;;;;;;1.93;1.50;;;22.20;99.90;;;;;;5038865;28;20946;-80
2023/07/31 04:10:33;;;;;;;1.47;1.20;;;22.20;99.90;;;;;;5037788;28;20465;-81
2023/07/31 04:13:00;;;;;;;3.20;1.77;;;22.20;99.90;;;;;;5038710;28;20489;-80
2023/07/31 04:15:28;;;;;;;1.83;1.47;;;22.20;99.90;;;;;;5035891;28;20964;-80
2023/07/31 04:17:55;;;;;;;1.47;1.20;;;22.20;99.90;;;;;;5036919;28;20458;-81
2023/07/31 04:20:22;;;;;;;1.67;1.57;;;22.20;99.90;;;;;;5038119;28;20908;-80
2023/07/31 04:22:49;;;;;;;1.60;1.43;;;22.20;99.90;;;;;;5033928;28;20461;-80
2023/07/31 04:25:16;;;;;;;1.63;1.30;;;22.20;99.90;;;;;;5039294;28;20457;-80
2023/07/31 04:27:42;;;;;;;1.93;1.10;;;22.20;99.90;;;;;;5039088;28;20495;-80
2023/07/31 04:30:10;;;;;;;1.23;1.07;;;22.20;99.90;;;;;;5036853;28;20468;-80
2023/07/31 04:32:38;;;;;;;1.90;1.50;;;22.20;99.90;;;;;;5037296;28;20515;-80
2023/07/31 04:35:05;;;;;;;1.40;1.30;;;22.20;99.90;;;;;;5038157;28;20465;-80
2023/07/31 04:37:32;;;;;;;2.10;1.27;;;22.20;99.90;;;;;;5035467;28;20462;-79
2023/07/31 04:39:59;;;;;;;1.40;1.30;;;22.20;99.90;;;;;;5037648;28;20461;-80
2023/07/31 04:42:25;;;;;;;1.63;1.33;;;22.20;99.90;;;;;;5038345;28;20477;-79
2023/07/31 04:44:53;;;;;;;1.33;1.17;;;22.20;99.90;;;;;;5037015;28;20509;-80
2023/07/31 04:47:20;;;;;;;1.40;1.30;;;22.20;99.90;;;;;;5038555;28;20990;-80
2023/07/31 04:49:48;;;;;;;1.73;1.63;;;22.20;99.90;;;;;;5031479;28;20469;-80
2023/07/31 04:52:14;;;;;;;1.70;1.53;;;22.20;99.90;;;;;;5031758;28;22169;-81
2023/07/31 04:54:41;;;;;;;2.00;1.73;;;22.20;99.90;;;;;;5031656;28;21183;-81
2023/07/31 04:57:08;;;;;;;1.40;1.30;;;22.20;99.90;;;;;;5032520;28;20464;-81
2023/07/31 04:59:35;;;;;;;2.13;1.67;;;22.20;99.90;;;;;;5030758;28;20462;-80
2023/07/31 05:02:01;;;;;;;1.90;1.10;;;22.20;99.90;;;;;;5031638;28;20546;-80
2023/07/31 05:04:28;;;;;;;1.53;1.13;;;22.20;99.90;;;;;;5032865;28;20461;-80
2023/07/31 05:06:56;;;;;;;3.73;2.03;;;22.20;99.90;;;;;;5028435;28;20461;-80
2023/07/31 05:09:23;;;;;;;1.63;1.20;;;22.20;99.90;;;;;;5030592;28;20465;-80
2023/07/31 05:11:49;;;;;;;1.33;1.17;;;22.20;99.90;;;;;;5034904;28;20464;-80
2023/07/31 05:14:16;;;;;;;1.67;1.33;;;22.20;99.90;;;;;;5035040;28;20492;-80
2023/07/31 05:16:43;;;;;;;2.27;1.60;;;22.20;99.90;;;;;;5031435;28;21423;-80
2023/07/31 05:19:10;;;;;;;1.73;1.63;;;22.20;99.90;;;;;;5032206;28;20464;-80
2023/07/31 05:21:36;;;;;;;1.77;1.50;;;22.20;99.90;;;;;;5030037;28;20465;-81
2023/07/31 05:24:05;;;;;;;2.03;1.13;;;22.20;99.90;;;;;;5030727;28;20472;-81
2023/07/31 05:26:32;;;;;;;1.60;1.30;;;22.20;99.90;;;;;;5035156;28;20507;-80
2023/07/31 05:28:58;;;;;;;2.13;1.60;;;22.20;99.90;;;;;;5030495;28;20469;-81
2023/07/31 05:31:25;;;;;;;1.77;1.40;;;22.20;99.90;;;;;;5034561;28;20806;-80
2023/07/31 05:33:52;;;;;;;1.83;1.63;;;22.20;99.90;;;;;;5029781;28;20500;-80
2023/07/31 05:36:19;;;;;;;1.53;1.40;;;22.20;99.90;;;;;;5032490;28;20469;-81
2023/07/31 05:38:45;;;;;;;1.80;1.70;;;22.20;99.90;;;;;;5027285;28;20825;-83
2023/07/31 05:41:14;;;;;;;1.70;1.30;;;22.20;99.90;;;;;;5032548;28;20939;-84
2023/07/31 05:43:41;;;;;;;1.57;1.40;;;22.20;99.90;;;;;;5031480;28;20449;-84
2023/07/31 05:46:09;;;;;;;1.80;1.60;;;22.20;99.90;;;;;;5031709;28;21988;-84
2023/07/31 05:48:35;;;;;;;1.97;1.50;;;22.10;99.90;;;;;;5036861;28;20453;-84
2023/07/31 05:51:02;;;;;;;1.50;1.40;;;22.20;99.90;;;;;;5036961;28;20457;-84
2023/07/31 05:53:29;;;;;;;1.80;1.33;;;22.10;99.90;;;;;;5041029;28;20980;-84
2023/07/31 05:55:55;;;;;;;1.30;1.10;;;22.20;99.90;;;;;;5038176;28;20457;-83
2023/07/31 05:58:23;;;;;;;1.40;1.10;;;22.10;99.90;;;;;;5036895;28;20480;-84
2023/07/31 06:00:52;;;;;;;1.80;1.30;;;22.10;99.90;;;;;;5036487;28;20979;-84
2023/07/31 06:03:18;;;;;;;1.60;1.40;;;22.10;99.90;;;;;;5037607;28;20747;-84
2023/07/31 06:05:45;;;;;;;2.23;1.20;;;22.10;99.90;;;;;;5042104;28;20468;-84
2023/07/31 06:08:12;;;;;;;2.17;1.30;;;22.20;99.90;;;;;;5039580;28;20960;-84
2023/07/31 06:10:38;;;;;;;1.23;1.13;;;22.10;99.90;;;;;;5040351;28;20942;-85
2023/07/31 06:13:05;;;;;;;1.10;0.90;;;22.10;99.90;;;;;;5040848;28;20476;-85
2023/07/31 06:15:33;;;;;;;2.33;1.27;;;22.20;99.90;;;;;;5040047;28;20461;-85
2023/07/31 06:18:01;;;;;;;1.30;1.20;;;22.10;99.90;;;;;;5039807;28;20698;-85
2023/07/31 06:20:28;;;;;;;1.90;1.20;;;22.10;99.90;;;;;;5039696;28;20530;-85
2023/07/31 06:22:55;;;;;;;1.30;1.10;;;22.10;99.90;;;;;;5040385;28;20734;-86
2023/07/31 06:25:22;;;;;;;1.77;1.40;;;22.10;99.90;;;;;;5039882;28;20971;-85
2023/07/31 06:27:49;;;;;;;1.70;1.30;;;22.10;99.90;;;;;;5037202;28;20499;-85
2023/07/31 06:30:15;;;;;;;1.33;1.20;;;22.10;99.90;;;;;;5039556;28;20453;-85
2023/07/31 06:32:43;;;;;;;1.33;1.23;;;22.10;99.90;;;;;;5041574;28;20484;-85
2023/07/31 06:35:10;;;;;;;1.60;1.43;;;22.10;99.90;;;;;;5042657;28;20492;-85
2023/07/31 06:37:37;;;;;;;1.90;1.20;;;22.10;99.90;;;;;;5042627;28;20457;-85
2023/07/31 06:40:07;;;;;;;1.60;1.40;;;22.10;99.90;;;;;;5042895;28;20465;-85
2023/07/31 06:42:34;;;;;;;1.60;1.17;;;22.10;99.90;;;;;;5042759;28;20465;-84
2023/07/31 06:45:01;;;;;;;1.50;1.30;;;22.10;99.90;;;;;;5043763;28;20720;-84
2023/07/31 06:47:28;;;;;;;2.13;1.37;;;22.10;99.90;;;;;;5043641;28;20449;-84
2023/07/31 06:49:56;;;;;;;1.53;0.87;;;22.10;99.90;;;;;;5042787;28;20465;-84
2023/07/31 06:52:23;;;;;;;1.50;1.30;;;22.10;99.90;;;;;;5039344;28;20465;-84
2023/07/31 06:55:03;;;;;;;1.50;1.23;;;22.10;99.90;;;;;;5038714;28;20930;-84
2023/07/31 06:57:29;;;;;;;1.37;1.27;;;22.10;99.90;;;;;;5038756;28;20489;-83
2023/07/31 06:59:56;;;;;;;1.87;1.30;;;22.10;99.90;;;;;;5039935;28;21384;-86
2023/07/31 07:02:23;;;;;;;1.73;1.30;;;22.10;99.90;;;;;;5044091;28;20946;-85
2023/07/31 07:04:51;;;;;;;1.50;1.30;;;22.10;99.90;;;;;;5041624;28;20449;-85
2023/07/31 07:07:20;;;;;;;1.63;1.40;;;22.10;99.90;;;;;;5035236;28;20804;-85
2023/07/31 07:09:47;;;;;;;2.00;1.27;;;22.10;99.90;;;;;;5037205;28;20515;-85
2023/07/31 07:12:13;;;;;;;1.23;1.13;;;22.10;99.90;;;;;;5040332;28;20461;-85
2023/07/31 07:14:40;;;;;;;2.17;1.20;;;22.10;99.90;;;;;;5037569;28;20707;-86
2023/07/31 07:17:07;;;;;;;1.83;1.50;;;22.10;99.90;;;;;;5032150;28;20990;-86
2023/07/31 07:19:33;;;;;;;1.70;1.57;;;22.10;99.90;;;;;;5035937;28;20461;-86
2023/07/31 07:22:01;;;;;;;3.60;2.10;;;22.10;99.90;;;;;;5033639;28;20476;-89
2023/07/31 07:24:30;;;;;;;2.50;2.30;;;22.10;99.90;;;;;;5042372;28;20860;-90
2023/07/31 07:26:56;;;;;;;5.73;3.80;;;22.10;99.90;;;;;;5040705;28;20996;-91
2023/07/31 07:29:23;;;;;;;4.60;3.20;;;22.10;99.90;;;;;;5040796;28;20465;-84
2023/07/31 07:31:50;;;;;;;7.20;3.80;;;22.10;99.90;;;;;;5034529;28;20477;-82
2023/07/31 07:34:16;;;;;;;6.20;4.10;;;22.10;99.90;;;;;;5035009;28;20504;-82
2023/07/31 07:36:43;;;;;;;9.40;4.70;;;22.10;99.90;;;;;;5034758;28;20458;-85
2023/07/31 07:39:11;;;;;;;5.50;3.10;;;22.10;99.90;;;;;;5035605;28;20451;-84
2023/07/31 07:41:39;;;;;;;7.93;4.07;;;22.10;99.90;;;;;;5034609;28;20464;-85
2023/07/31 07:44:06;;;;;;;4.80;3.60;;;22.10;99.90;;;;;;5037520;28;20454;-86
2023/07/31 07:46:33;;;;;;;6.90;3.70;;;22.10;99.90;;;;;;5033146;28;20473;-89
2023/07/31 07:49:00;;;;;;;5.30;3.93;;;22.10;99.90;;;;;;5035522;28;21031;-83
2023/07/31 07:51:26;;;;;;;8.23;2.90;;;22.10;99.90;;;;;;5032395;28;20469;-83
2023/07/31 07:53:53;;;;;;;4.73;3.73;;;22.10;99.90;;;;;;5032899;28;20529;-83
2023/07/31 07:56:20;;;;;;;5.97;3.73;;;22.10;99.90;;;;;;5034612;28;20473;-82
2023/07/31 07:58:51;;;;;;;4.33;3.50;;;22.10;99.90;;;;;;5038278;28;20956;-84
2023/07/31 08:01:17;;;;;;;5.10;3.37;;;22.10;99.90;;;;;;5038413;28;20476;-80
2023/07/31 08:03:44;;;;;;;4.80;3.70;;;22.10;99.90;;;;;;5036237;28;20445;-84
2023/07/31 08:06:11;;;;;;;9.53;3.50;;;22.10;99.90;;;;;;5032288;28;20460;-83
2023/07/31 08:08:39;;;;;;;4.50;3.20;;;22.10;99.90;;;;;;5032727;28;20892;-81
2023/07/31 08:11:06;;;;;;;8.10;3.33;;;22.10;99.90;;;;;;5028353;28;20464;-92
2023/07/31 08:13:32;;;;;;;4.43;3.40;;;22.10;99.90;;;;;;5038680;28;20478;-82
2023/07/31 08:16:00;;;;;;;4.23;2.10;;;22.10;99.90;;;;;;5027901;28;20469;-82
2023/07/31 08:18:27;;;;;;;4.03;3.20;;;22.10;99.90;;;;;;5028402;28;20476;-82
2023/07/31 08:20:54;;;;;;;4.70;3.47;;;22.10;99.90;;;;;;5027005;28;20453;-82
2023/07/31 08:23:21;;;;;;;6.03;2.83;;;22.10;99.90;;;;;;5027666;28;20692;-82
2023/07/31 08:25:49;;;;;;;3.77;3.27;;;22.10;99.90;;;;;;5026483;28;20469;-81
2023/07/31 08:28:16;;;;;;;5.10;2.87;;;22.10;99.90;;;;;;5028742;28;20482;-81
2023/07/31 08:30:43;;;;;;;4.70;3.43;;;22.10;99.90;;;;;;5026922;28;20528;-81
2023/07/31 08:33:11;;;;;;;7.73;3.90;;;22.10;99.90;;;;;;5026803;28;20464;-81
2023/07/31 08:35:38;;;;;;;4.87;3.20;;;22.10;99.90;;;;;;5030423;28;20877;-80
2023/07/31 08:38:04;;;;;;;4.53;3.40;;;22.10;99.90;;;;;;5027117;28;20804;-85
2023/07/31 08:40:31;;;;;;;5.70;2.90;;;22.10;99.90;;;;;;5028043;28;20467;-85
2023/07/31 08:43:02;;;;;;;5.83;2.60;;;22.10;99.90;;;;;;5033336;28;20466;-84
2023/07/31 08:45:29;;;;;;;4.97;3.53;;;22.10;99.90;;;;;;5026578;28;20472;-86
2023/07/31 08:47:57;;;;;;;5.80;3.67;;;22.10;99.90;;;;;;5032890;28;21039;-86
2023/07/31 08:50:25;;;;;;;5.30;3.93;;;22.20;99.90;;;;;;5033768;28;20469;-85
2023/07/31 08:52:53;;;;;;;5.90;3.17;;;22.20;99.90;;;;;;5032143;28;20468;-81
2023/07/31 08:55:23;;;;;;;4.23;3.13;;;22.20;99.90;;;;;;5030558;28;20840;-83
2023/07/31 08:57:52;;;;;;;3.43;2.87;;;22.20;99.90;;;;;;5029000;28;20941;-82
2023/07/31 09:00:23;;;;;;;3.90;3.20;;;22.20;99.90;;;;;;5030275;28;20458;-83
2023/07/31 09:02:56;;;;;;;4.10;2.97;;;22.20;99.90;;;;;;5032436;28;20565;-84
2023/07/31 09:05:27;;;;;;;4.37;3.07;;;22.20;99.90;;;;;;5025952;28;20472;-84
2023/07/31 09:07:56;;;;;;;4.87;2.73;;;22.20;99.90;;;;;;5028763;28;20454;-82
2023/07/31 09:10:23;;;;;;;4.77;2.90;;;22.20;99.90;;;;;;5032661;28;20466;-82
2023/07/31 09:12:50;;;;;;;5.37;3.13;;;22.30;99.90;;;;;;5029992;28;20461;-85
2023/07/31 09:15:17;;;;;;;5.47;3.53;;;22.30;99.90;;;;;;5026000;28;20741;-82
2023/07/31 09:17:43;;;;;;;3.73;3.37;;;22.30;99.90;;;;;;5033648;28;20472;-81
2023/07/31 09:20:17;;;;;;;7.33;2.70;;;22.30;99.90;;;;;;5027529;28;20465;-82
2023/07/31 09:22:46;;;;;;;4.20;3.67;;;22.40;99.90;;;;;;5028751;28;21108;-81
2023/07/31 09:25:17;;;;;;;3.30;2.50;;;22.40;99.90;;;;;;5030863;28;20472;-81
2023/07/31 09:27:48;;;;;;;3.50;2.87;;;22.40;99.90;;;;;;5033013;28;20488;-82
2023/07/31 09:30:15;;;;;;;4.87;3.00;;;22.40;99.90;;;;;;5032884;28;21075;-83
2023/07/31 09:32:43;;;;;;;3.63;3.30;;;22.50;99.90;;;;;;5035063;28;20460;-83
2023/07/31 09:35:21;;;;;;;2.60;2.40;;;22.50;99.90;;;;;;5028752;28;20896;-82
2023/07/31 09:37:53;;;;;;;3.60;2.83;;;22.50;99.90;;;;;;5036351;28;20453;-82
2023/07/31 09:40:27;;;;;;;4.53;2.83;;;22.50;99.90;;;;;;5035636;28;20970;-82
2023/07/31 09:42:56;;;;;;;3.20;2.90;;;22.60;99.90;;;;;;5033619;28;20875;-81
2023/07/31 09:45:24;;;;;;;3.93;2.57;;;22.60;99.90;;;;;;5030709;28;21853;-83
2023/07/31 09:47:50;;;;;;;3.67;2.50;;;22.60;99.90;;;;;;5025814;28;20468;-82
2023/07/31 09:50:17;;;;;;;3.77;2.90;;;22.60;99.90;;;;;;5034182;28;20848;-84
2023/07/31 09:52:44;;;;;;;3.10;2.80;;;22.60;99.90;;;;;;5036544;28;20469;-82
2023/07/31 09:55:13;;;;;;;3.93;2.90;;;22.70;99.90;;;;;;5031988;28;20481;-84
2023/07/31 09:57:41;;;;;;;2.80;2.43;;;22.70;99.90;;;;;;5039435;28;20465;-84
2023/07/31 10:00:10;;;;;;;3.20;2.90;;;22.70;99.90;;;;;;5036621;28;20480;-82
2023/07/31 10:02:37;;;;;;;2.60;2.40;;;22.70;99.90;;;;;;5034262;28;20493;-83
2023/07/31 10:05:06;;;;;;;3.50;3.10;;;22.70;99.90;;;;;;5034678;28;20465;-84
2023/07/31 10:07:36;;;;;;;3.53;2.70;;;22.80;99.90;;;;;;5030843;28;20462;-84
2023/07/31 10:10:05;;;;;;;4.57;3.13;;;22.80;99.90;;;;;;5039283;28;20452;-85
2023/07/31 10:12:35;;;;;;;3.40;3.10;;;22.80;99.90;;;;;;5037740;28;20467;-84
2023/07/31 10:15:02;;;;;;;3.70;2.23;;;22.80;99.90;;;;;;5034465;28;21008;-86
2023/07/31 10:17:31;;;;;;;4.33;3.10;;;22.80;99.90;;;;;;5036274;28;20459;-86
2023/07/31 10:19:59;;;;;;;2.77;2.37;;;22.80;99.90;;;;;;5039353;28;20515;-86
2023/07/31 10:22:26;;;;;;;3.53;3.20;;;22.90;99.90;;;;;;5038190;28;21009;-85
2023/07/31 10:24:55;;;;;;;2.43;2.23;;;22.90;99.90;;;;;;5037393;28;20472;-86
2023/07/31 10:27:22;;;;;;;3.30;2.47;;;22.90;99.90;;;;;;5044563;28;20481;-85
2023/07/31 10:29:53;;;;;;;4.97;3.10;;;22.90;99.90;;;;;;5040542;28;20441;-92
2023/07/31 10:32:23;;;;;;;5.13;2.97;;;22.90;99.90;;;;;;5044510;28;20469;-95
2023/07/31 10:34:50;;;;;;;3.00;2.77;;;22.90;99.90;;;;;;5044271;28;20486;-93
2023/07/31 10:37:25;;;;;;;2.87;2.57;;;22.90;99.90;;;;;;5036384;28;20473;-82
2023/07/31 10:39:59;;;;;;;2.83;2.53;;;22.90;99.90;;;;;;5046347;28;20457;-88
2023/07/31 10:42:31;;;;;;;6.40;2.30;;;22.90;99.90;;;;;;5045261;28;20456;-90
2023/07/31 10:45:01;;;;;;;6.83;2.83;;;22.90;99.90;;;;;;5041164;28;20458;-93
2023/07/31 10:47:38;;;;;;;2.50;2.30;;;23.00;99.90;;;;;;5047228;28;20453;-94
2023/07/31 10:50:18;;;;;;;3.00;1.87;;;23.00;99.90;;;;;;5045375;28;20453;-92
2023/07/31 10:52:48;;;;;;;3.00;1.93;;;23.00;99.90;;;;;;5050686;28;20462;-92
2023/07/31 10:55:27;;;;;;;6.80;2.20;;;23.00;99.90;;;;;;5044244;28;20913;-91
2023/07/31 10:57:55;;;;;;;4.40;2.57;;;23.00;99.90;;;;;;5048122;28;21416;-89
2023/07/31 11:00:27;;;;;;;1.90;1.63;;;23.00;99.90;;;;;;5047862;28;20461;-85
2023/07/31 11:02:58;;;;;;;6.93;2.53;;;23.00;99.90;;;;;;5047290;28;20453;-86
2023/07/31 11:05:47;;;;;;;2.40;1.77;;;23.00;99.90;;;;;;5051076;28;20934;-87
2023/07/31 11:08:16;;;;;;;3.23;1.93;;;23.00;99.90;;;;;;5047574;28;20458;-86
2023/07/31 11:10:44;;;;;;;3.40;1.90;;;23.00;99.90;;;;;;5047848;28;20545;-93
2023/07/31 11:13:11;;;;;;;5.40;2.20;;;23.10;99.90;;;;;;5056586;28;20453;-90
2023/07/31 11:15:39;;;;;;;8.40;2.20;;;23.10;99.90;;;;;;5050903;28;20489;-90
2023/07/31 11:18:07;;;;;;;3.83;2.60;;;23.10;99.90;;;;;;5049383;28;20457;-89
2023/07/31 11:20:36;;;;;;;3.33;2.30;;;23.10;99.90;;;;;;5050132;28;20470;-91
2023/07/31 11:23:03;;;;;;;4.97;2.70;;;23.10;99.90;;;;;;5049380;28;20459;-87
2023/07/31 11:25:31;;;;;;;2.53;2.33;;;23.10;99.90;;;;;;5057280;28;20939;-92
2023/07/31 11:27:58;;;;;;;3.83;2.50;;;23.10;99.90;;;;;;5051369;28;20483;-93
2023/07/31 11:30:25;;;;;;;1.80;1.60;;;23.10;99.90;;;;;;5053428;28;20458;-92
2023/07/31 11:32:53;;;;;;;3.33;2.50;;;23.10;99.90;;;;;;5057456;28;20458;-88
2023/07/31 11:35:20;;;;;;;1.83;1.63;;;23.20;99.90;;;;;;5060920;28;20481;-91
2023/07/31 11:37:46;;;;;;;3.00;2.03;;;23.20;99.90;;;;;;5047600;22;20498;-58
2023/07/31 11:40:13;;;;;;;2.23;2.03;;;23.20;99.90;;;;;;5019038;28;20982;-58
2023/07/31 11:42:40;;;;;;;7.73;1.70;;;23.20;99.90;;;;;;5020176;28;20475;-66
2023/07/31 11:45:08;;;;;;;3.10;1.90;;;23.20;99.90;;;;;;5021639;28;20466;-63
2023/07/31 11:47:36;;;;;;;2.23;1.50;;;23.20;99.90;;;;;;5026359;28;20769;-64
2023/07/31 11:50:06;;;;;;;2.27;2.07;;;23.20;99.90;;;;;;5023084;28;20452;-56
2023/07/31 11:52:37;;;;;;;3.60;2.10;;;23.20;99.90;;;;;;5021512;28;20473;-59
2023/07/31 11:55:06;;;;;;;3.80;1.77;;;23.20;99.90;;;;;;5022451;28;20482;-61
2023/07/31 11:57:33;;;;;;;2.13;1.90;;;23.20;99.90;;;;;;5022162;28;20548;-60
2023/07/31 12:00:00;;;;;;;4.60;1.87;;;23.20;99.90;;;;;;5021740;28;20473;-67
2023/07/31 12:02:27;;;;;;;3.57;2.23;;;23.20;99.90;;;;;;5021375;28;20466;-63
2023/07/31 12:04:54;;;;;;;4.90;2.33;;;23.20;99.90;;;;;;5021448;28;20468;-64
2023/07/31 12:07:22;;;;;;;3.87;1.83;;;23.20;99.90;;;;;;5019801;28;20869;-63
2023/07/31 12:09:53;;;;;;;3.63;1.97;;;23.20;99.90;;;;;;5025135;28;20471;-51
2023/07/31 12:12:21;;;;;;;2.33;1.83;;;23.20;99.90;;;;;;5026603;28;20491;-59
2023/07/31 12:14:50;;;;;;;5.73;2.07;;;23.20;99.90;;;;;;5026523;28;20565;-67
2023/07/31 12:17:17;;;;;;;2.20;2.00;;;23.20;99.90;;;;;;5027595;28;20492;-60
2023/07/31 12:19:44;;;;;;;2.60;1.73;;;23.20;99.90;;;;;;5026713;28;20473;-57
2023/07/31 12:22:14;;;;;;;5.73;1.60;;;23.20;99.90;;;;;;5022385;28;20455;-53
2023/07/31 12:24:44;;;;;;;5.03;2.33;;;23.20;99.90;;;;;;5024663;28;20465;-57
2023/07/31 12:27:12;;;;;;;2.57;2.20;;;23.30;99.90;;;;;;5021674;28;20834;-56
2023/07/31 12:29:40;;;;;;;3.73;2.00;;;23.30;99.90;;;;;;5017531;28;20481;-56
2023/07/31 12:32:20;;;;;;;2.57;2.37;;;23.30;99.90;;;;;;5024187;28;20472;-59
2023/07/31 12:34:46;;;;;;;2.30;1.77;;;23.30;99.90;;;;;;5027287;28;20490;-59
2023/07/31 12:37:13;;;;;;;4.13;1.60;;;23.30;99.90;;;;;;5025826;28;20451;-60
2023/07/31 12:39:41;;;;;;;4.07;2.57;;;23.30;99.90;;;;;;5025800;28;20571;-63
2023/07/31 12:42:08;;;;;;;9.00;1.80;;;23.30;99.90;;;;;;5023949;28;20462;-62
2023/07/31 12:44:35;;;;;;;2.80;2.03;;;23.30;99.90;;;;;;5024297;28;20465;-59
2023/07/31 12:47:01;;;;;;;3.43;1.97;;;23.30;99.90;;;;;;5024453;28;20470;-55
2023/07/31 12:49:28;;;;;;;3.40;1.80;;;23.30;99.90;;;;;;5024405;28;20480;-60
2023/07/31 12:51:55;;;;;;;3.20;1.93;;;23.30;99.90;;;;;;5025523;28;21122;-54